Krasnye Baki, Russia
Current Conditions -  °F | °C
As of 10:30 PM on Sunday 21 Dec 2014 (Local Time) from UWGG Reporting Station
Broken Clouds Broken Clouds  
Wind Chill: 29°   Ceiling: 1800
Heat Index: 36°   Visibility: 6mi
Dew Point: 30°   Wind: 9mph
Humidity: 81%   Direction: 210°SSW
Pressure: 29.53"   Gusts: NA
Location:  57.13°N, 45.17°E
Report Text: UWGG 211930Z 21004MPS 9999 BKN018 02/M01 Q1000 TEMPO20005G10MPS 18120048 RMK QFE743
Loading
Personal Weather Stations






























Interactive Weather Map New forecast layout! Learn more

10-Day Weather Forecast

Advertisements
Track Severe Weather on mobile